sensor_id;sensor_type;location;lat;lon;timestamp;temperature;humidity
57719;DHT22;43561;50.090;18.522;2023-02-28T00:02:54;-0.40;94.10
57719;DHT22;43561;50.090;18.522;2023-02-28T00:13:01;-0.50;94.30
57719;DHT22;43561;50.090;18.522;2023-02-28T00:23:04;-0.60;95.70
57719;DHT22;43561;50.090;18.522;2023-02-28T00:33:06;-0.60;95.20
57719;DHT22;43561;50.090;18.522;2023-02-28T00:43:07;-0.50;95.80
57719;DHT22;43561;50.090;18.522;2023-02-28T00:53:09;-0.60;95.70
57719;DHT22;43561;50.090;18.522;2023-02-28T01:03:11;-0.60;96.00
57719;DHT22;43561;50.090;18.522;2023-02-28T01:13:13;-0.80;97.70
57719;DHT22;43561;50.090;18.522;2023-02-28T01:23:15;-0.90;98.40
57719;DHT22;43561;50.090;18.522;2023-02-28T01:33:17;-1.00;99.10
57719;DHT22;43561;50.090;18.522;2023-02-28T01:43:32;-1.20;99.60
57719;DHT22;43561;50.090;18.522;2023-02-28T01:53:39;-1.30;99.90
57719;DHT22;43561;50.090;18.522;2023-02-28T02:03:43;-1.40;99.90
57719;DHT22;43561;50.090;18.522;2023-02-28T02:14:02;-1.50;99.90
57719;DHT22;43561;50.090;18.522;2023-02-28T02:34:46;-1.80;99.90
57719;DHT22;43561;50.090;18.522;2023-02-28T02:45:04;-1.90;99.90
57719;DHT22;43561;50.090;18.522;2023-02-28T02:55:10;-1.90;99.90
57719;DHT22;43561;50.090;18.522;2023-02-28T03:05:35;-2.00;99.90
57719;DHT22;43561;50.090;18.522;2023-02-28T03:26:26;-2.10;99.90
57719;DHT22;43561;50.090;18.522;2023-02-28T03:36:37;-2.20;99.90
57719;DHT22;43561;50.090;18.522;2023-02-28T03:46:46;-2.30;99.90
57719;DHT22;43561;50.090;18.522;2023-02-28T04:07:34;-2.50;99.90
57719;DHT22;43561;50.090;18.522;2023-02-28T04:17:36;-2.50;99.90
57719;DHT22;43561;50.090;18.522;2023-02-28T04:27:37;-2.60;99.90
57719;DHT22;43561;50.090;18.522;2023-02-28T04:37:39;-2.70;99.90
57719;DHT22;43561;50.090;18.522;2023-02-28T04:47:41;-2.70;99.90
57719;DHT22;43561;50.090;18.522;2023-02-28T04:57:43;-2.80;99.90
57719;DHT22;43561;50.090;18.522;2023-02-28T05:07:45;-2.80;99.90
57719;DHT22;43561;50.090;18.522;2023-02-28T05:17:47;-2.90;99.90
57719;DHT22;43561;50.090;18.522;2023-02-28T05:27:49;-2.90;99.90
57719;DHT22;43561;50.090;18.522;2023-02-28T05:37:51;-2.90;99.90
57719;DHT22;43561;50.090;18.522;2023-02-28T05:47:54;-2.90;99.90
57719;DHT22;43561;50.090;18.522;2023-02-28T05:57:57;-2.90;99.90
57719;DHT22;43561;50.090;18.522;2023-02-28T06:07:59;-2.90;99.90
57719;DHT22;43561;50.090;18.522;2023-02-28T06:18:01;-2.80;99.90
57719;DHT22;43561;50.090;18.522;2023-02-28T06:28:03;-2.70;99.90
57719;DHT22;43561;50.090;18.522;2023-02-28T06:38:05;-2.60;99.90
57719;DHT22;43561;50.090;18.522;2023-02-28T06:48:07;-2.40;99.90
57719;DHT22;43561;50.090;18.522;2023-02-28T06:58:09;-2.20;99.90
57719;DHT22;43561;50.090;18.522;2023-02-28T07:08:11;-2.10;99.90
57719;DHT22;43561;50.090;18.522;2023-02-28T07:18:13;-2.00;99.90
57719;DHT22;43561;50.090;18.522;2023-02-28T07:28:15;-1.50;99.90
57719;DHT22;43561;50.090;18.522;2023-02-28T07:38:17;-1.70;99.90
57719;DHT22;43561;50.090;18.522;2023-02-28T07:48:19;-1.60;99.90
57719;DHT22;43561;50.090;18.522;2023-02-28T07:58:21;-1.40;99.90
57719;DHT22;43561;50.090;18.522;2023-02-28T08:08:23;-1.10;99.90
57719;DHT22;43561;50.090;18.522;2023-02-28T08:18:25;-1.00;99.90
57719;DHT22;43561;50.090;18.522;2023-02-28T08:28:27;-0.80;99.90
57719;DHT22;43561;50.090;18.522;2023-02-28T08:38:29;-0.50;99.90
57719;DHT22;43561;50.090;18.522;2023-02-28T08:48:33;-0.40;99.90
57719;DHT22;43561;50.090;18.522;2023-02-28T08:58:35;-0.40;99.90
57719;DHT22;43561;50.090;18.522;2023-02-28T09:08:37;-0.10;99.00
57719;DHT22;43561;50.090;18.522;2023-02-28T09:18:39;0.30;94.90
57719;DHT22;43561;50.090;18.522;2023-02-28T09:28:42;0.40;90.90
57719;DHT22;43561;50.090;18.522;2023-02-28T09:38:44;0.70;88.40
57719;DHT22;43561;50.090;18.522;2023-02-28T09:48:47;1.20;85.70
57719;DHT22;43561;50.090;18.522;2023-02-28T10:09:13;2.50;68.20
57719;DHT22;43561;50.090;18.522;2023-02-28T10:19:24;2.90;65.60
57719;DHT22;43561;50.090;18.522;2023-02-28T10:29:31;2.80;64.40
57719;DHT22;43561;50.090;18.522;2023-02-28T10:49:46;2.90;63.00
57719;DHT22;43561;50.090;18.522;2023-02-28T10:59:53;3.20;64.30
57719;DHT22;43561;50.090;18.522;2023-02-28T11:10:19;2.80;64.80
57719;DHT22;43561;50.090;18.522;2023-02-28T11:20:24;2.80;63.50
57719;DHT22;43561;50.090;18.522;2023-02-28T11:30:35;2.90;64.10
57719;DHT22;43561;50.090;18.522;2023-02-28T11:51:11;3.00;66.00
57719;DHT22;43561;50.090;18.522;2023-02-28T12:11:56;2.90;64.20
57719;DHT22;43561;50.090;18.522;2023-02-28T12:32:23;2.90;64.40
57719;DHT22;43561;50.090;18.522;2023-02-28T12:42:36;2.80;63.20
57719;DHT22;43561;50.090;18.522;2023-02-28T12:52:58;3.00;63.70
57719;DHT22;43561;50.090;18.522;2023-02-28T13:13:29;3.10;65.50
57719;DHT22;43561;50.090;18.522;2023-02-28T13:44:03;3.40;63.50
57719;DHT22;43561;50.090;18.522;2023-02-28T14:35:39;3.10;64.30
57719;DHT22;43561;50.090;18.522;2023-02-28T14:45:42;3.10;64.40
57719;DHT22;43561;50.090;18.522;2023-02-28T14:55:45;3.00;66.00
57719;DHT22;43561;50.090;18.522;2023-02-28T15:06:12;3.00;66.70
57719;DHT22;43561;50.090;18.522;2023-02-28T15:16:37;2.90;66.70
57719;DHT22;43561;50.090;18.522;2023-02-28T15:26:44;3.00;67.90
57719;DHT22;43561;50.090;18.522;2023-02-28T15:36:47;2.70;67.40
57719;DHT22;43561;50.090;18.522;2023-02-28T15:47:14;2.60;68.70
57719;DHT22;43561;50.090;18.522;2023-02-28T15:57:25;2.50;68.80
57719;DHT22;43561;50.090;18.522;2023-02-28T16:07:28;2.40;69.80
57719;DHT22;43561;50.090;18.522;2023-02-28T16:17:34;2.20;70.50
57719;DHT22;43561;50.090;18.522;2023-02-28T16:27:37;2.10;73.10
57719;DHT22;43561;50.090;18.522;2023-02-28T16:37:40;1.90;74.80
57719;DHT22;43561;50.090;18.522;2023-02-28T16:47:42;1.70;76.70
57719;DHT22;43561;50.090;18.522;2023-02-28T16:57:47;1.50;80.20
57719;DHT22;43561;50.090;18.522;2023-02-28T17:07:50;1.40;80.80
57719;DHT22;43561;50.090;18.522;2023-02-28T17:17:52;1.30;83.30
57719;DHT22;43561;50.090;18.522;2023-02-28T17:27:54;1.10;85.80
57719;DHT22;43561;50.090;18.522;2023-02-28T17:37:56;1.00;86.50
57719;DHT22;43561;50.090;18.522;2023-02-28T17:47:57;0.80;89.00
57719;DHT22;43561;50.090;18.522;2023-02-28T17:58:00;0.70;90.50
57719;DHT22;43561;50.090;18.522;2023-02-28T18:08:03;0.50;92.20
57719;DHT22;43561;50.090;18.522;2023-02-28T18:18:05;0.40;93.40
57719;DHT22;43561;50.090;18.522;2023-02-28T18:28:07;0.20;94.30
57719;DHT22;43561;50.090;18.522;2023-02-28T18:38:14;0.10;96.10
57719;DHT22;43561;50.090;18.522;2023-02-28T18:48:16;0.00;97.70
57719;DHT22;43561;50.090;18.522;2023-02-28T18:58:18;-0.30;99.70
57719;DHT22;43561;50.090;18.522;2023-02-28T19:08:20;-0.30;99.90
57719;DHT22;43561;50.090;18.522;2023-02-28T19:18:22;-0.50;99.90
57719;DHT22;43561;50.090;18.522;2023-02-28T19:28:27;-0.50;99.90
57719;DHT22;43561;50.090;18.522;2023-02-28T19:38:29;-0.70;99.90
57719;DHT22;43561;50.090;18.522;2023-02-28T19:48:32;-0.90;99.90
57719;DHT22;43561;50.090;18.522;2023-02-28T19:58:34;-0.90;99.90
57719;DHT22;43561;50.090;18.522;2023-02-28T20:08:36;-0.80;99.90
57719;DHT22;43561;50.090;18.522;2023-02-28T20:18:40;-0.90;99.90
57719;DHT22;43561;50.090;18.522;2023-02-28T20:28:42;-1.00;99.90
57719;DHT22;43561;50.090;18.522;2023-02-28T20:38:44;-1.20;99.90
57719;DHT22;43561;50.090;18.522;2023-02-28T20:48:46;-1.40;99.90
57719;DHT22;43561;50.090;18.522;2023-02-28T20:58:51;-1.50;99.90
57719;DHT22;43561;50.090;18.522;2023-02-28T21:08:53;-1.70;99.90
57719;DHT22;43561;50.090;18.522;2023-02-28T21:18:56;-1.80;99.90
57719;DHT22;43561;50.090;18.522;2023-02-28T21:29:00;-1.80;99.90
57719;DHT22;43561;50.090;18.522;2023-02-28T21:39:06;-1.80;99.90
57719;DHT22;43561;50.090;18.522;2023-02-28T21:49:08;-1.90;99.90
57719;DHT22;43561;50.090;18.522;2023-02-28T21:59:10;-2.00;99.90
57719;DHT22;43561;50.090;18.522;2023-02-28T22:09:12;-2.00;99.90
57719;DHT22;43561;50.090;18.522;2023-02-28T22:19:15;-2.20;99.90
57719;DHT22;43561;50.090;18.522;2023-02-28T22:29:17;-2.30;99.90
57719;DHT22;43561;50.090;18.522;2023-02-28T22:39:18;-2.50;99.90
57719;DHT22;43561;50.090;18.522;2023-02-28T22:49:20;-2.50;99.90
57719;DHT22;43561;50.090;18.522;2023-02-28T22:59:22;-2.70;99.90
57719;DHT22;43561;50.090;18.522;2023-02-28T23:09:24;-2.80;99.90
57719;DHT22;43561;50.090;18.522;2023-02-28T23:19:28;-2.80;99.90
57719;DHT22;43561;50.090;18.522;2023-02-28T23:29:32;-2.90;99.90
57719;DHT22;43561;50.090;18.522;2023-02-28T23:39:34;-3.00;99.90
57719;DHT22;43561;50.090;18.522;2023-02-28T23:49:36;-3.00;99.90
57719;DHT22;43561;50.090;18.522;2023-02-28T23:59:37;-3.10;99.90
